RJNF(METAR)
12/16 15:00
RJNF 160600Z 13008KT 7000 RA FEW010 BKN020 OVC040 05/04 Q1014 RMK
A2994=
戻る
トップページへ戻る
IMOC Co,.Ltd.